Terminal Aerodrome Forecast
Issued by NWS

Home | Current Version | Previous Version | Text Only | Print | Product List | Glossary On
Versions: 1 2 3 4 5 6 7 8 9 10 11 12 13 14 15 16 17
000
FTAK31 PANC 211736
TAFADU
TAF
PADU 211736Z 2118/2218 19008KT P6SM VCSH SCT040 OVC050
     FM212100 VRB05KT P6SM SCT050 BKN150
     FM220800 13010G20KT P6SM SCT035 BKN050 OVC150
     FM221200 11022G32KT 5SM -SN BR SCT015 BKN025 OVC050=

USA.gov is the U.S. government's official web portal to all federal, state and local government web resources and services.